Time;durP1;ratioP1;P1;durP2;ratioP2;P2;SDS_P1;SDS_P2;PMS_P1;PMS_P2;Temp;Humidity;BMP_temperature;BMP_pressure;BME280_temperature;BME280_humidity;BME280_pressure;Samples;Min_cycle;Max_cycle;Signal;HPM_P1;HPM_P2
2021/07/02 00:02:23;;;;;;;33.20;20.23;;;15.20;99.90;;;;;;5053109;28;20186;-71
2021/07/02 00:04:49;;;;;;;29.03;20.60;;;15.30;99.90;;;;;;5056367;28;20517;-72
2021/07/02 00:07:14;;;;;;;33.77;21.30;;;15.30;99.90;;;;;;5056605;28;20249;-72
2021/07/02 00:09:40;;;;;;;29.93;18.80;;;15.30;99.90;;;;;;5056537;28;20205;-72
2021/07/02 00:12:06;;;;;;;33.67;19.40;;;15.40;99.90;;;;;;5054224;28;20622;-72
2021/07/02 00:14:31;;;;;;;32.43;19.90;;;15.40;99.90;;;;;;5055829;28;20174;-72
2021/07/02 00:16:57;;;;;;;31.50;19.90;;;15.40;99.90;;;;;;5056174;28;20439;-72
2021/07/02 00:19:25;;;;;;;29.73;20.17;;;15.30;99.90;;;;;;5056455;28;20190;-72
2021/07/02 00:21:50;;;;;;;30.10;22.03;;;15.30;99.90;;;;;;5054401;28;20200;-72
2021/07/02 00:24:16;;;;;;;29.23;20.00;;;15.30;99.90;;;;;;5055592;28;20440;-71
2021/07/02 00:26:42;;;;;;;31.80;22.10;;;15.30;99.90;;;;;;5055975;28;20542;-72
2021/07/02 00:29:08;;;;;;;27.67;18.60;;;15.30;99.90;;;;;;5055800;28;20190;-72
2021/07/02 00:31:34;;;;;;;35.50;20.73;;;15.20;99.90;;;;;;5056173;28;20417;-72
2021/07/02 00:33:59;;;;;;;30.10;21.20;;;15.20;99.90;;;;;;5053281;28;20179;-71
2021/07/02 00:36:25;;;;;;;31.73;20.37;;;15.20;99.90;;;;;;5059581;28;20232;-72
2021/07/02 00:38:50;;;;;;;32.77;20.67;;;15.20;99.90;;;;;;5055913;28;20226;-72
2021/07/02 00:41:16;;;;;;;29.97;20.50;;;15.30;99.90;;;;;;5055719;28;20167;-72
2021/07/02 00:43:53;;;;;;;34.63;22.60;;;15.30;99.90;;;;;;5053854;28;20251;-72
2021/07/02 00:46:19;;;;;;;31.20;20.50;;;15.30;99.90;;;;;;5055504;28;20197;-72
2021/07/02 00:48:45;;;;;;;29.47;21.03;;;15.30;99.90;;;;;;5055468;28;20457;-71
2021/07/02 00:51:11;;;;;;;34.50;24.03;;;15.30;99.90;;;;;;5054246;28;20419;-72
2021/07/02 00:53:36;;;;;;;35.13;21.77;;;15.30;99.90;;;;;;5054678;28;20470;-71
2021/07/02 00:56:03;;;;;;;35.00;23.20;;;15.40;99.90;;;;;;5036610;28;20194;-71
2021/07/02 00:58:34;;;;;;;33.80;22.23;;;15.40;99.90;;;;;;5034834;28;20576;-72
2021/07/02 01:01:00;;;;;;;41.70;22.50;;;15.40;99.90;;;;;;5036561;28;20471;-71
2021/07/02 01:03:26;;;;;;;33.70;22.47;;;15.40;99.90;;;;;;5035450;28;20413;-71
2021/07/02 01:05:53;;;;;;;36.63;22.00;;;15.30;99.90;;;;;;5037532;28;20786;-72
2021/07/02 01:08:19;;;;;;;36.10;22.47;;;15.30;99.90;;;;;;5035638;28;20167;-71
2021/07/02 01:10:45;;;;;;;38.83;22.83;;;15.20;99.90;;;;;;5034066;28;20927;-71
2021/07/02 01:13:10;;;;;;;38.33;23.33;;;15.10;99.90;;;;;;5034799;28;20649;-71
2021/07/02 01:15:36;;;;;;;37.07;23.30;;;15.10;99.90;;;;;;5036080;28;20446;-71
2021/07/02 01:18:06;;;;;;;35.07;23.60;;;15.10;99.90;;;;;;5034835;28;20229;-72
2021/07/02 01:20:31;;;;;;;36.23;23.00;;;15.10;99.90;;;;;;5035010;28;20638;-71
2021/07/02 01:22:57;;;;;;;35.83;22.80;;;15.10;99.90;;;;;;5033407;28;20426;-72
2021/07/02 01:25:31;;;;;;;40.27;22.93;;;15.10;99.90;;;;;;5034250;28;20199;-71
2021/07/02 01:27:58;;;;;;;36.67;22.83;;;15.10;99.90;;;;;;5035836;28;20433;-71
2021/07/02 01:30:23;;;;;;;37.07;23.63;;;15.10;99.90;;;;;;5035062;28;20906;-72
2021/07/02 01:32:49;;;;;;;40.77;22.67;;;15.10;99.90;;;;;;5034510;28;20418;-72
2021/07/02 01:35:15;;;;;;;39.67;23.83;;;15.20;99.90;;;;;;5033232;28;20194;-71
2021/07/02 01:37:41;;;;;;;35.70;22.07;;;15.10;99.90;;;;;;5034434;28;20206;-72
2021/07/02 01:40:07;;;;;;;35.30;23.27;;;15.10;99.90;;;;;;5052300;28;20963;-72
2021/07/02 01:42:33;;;;;;;38.03;22.27;;;15.10;99.90;;;;;;5053435;28;20661;-72
2021/07/02 01:44:58;;;;;;;38.23;22.67;;;15.10;99.90;;;;;;5050197;28;20444;-73
2021/07/02 01:47:24;;;;;;;34.53;22.53;;;15.10;99.90;;;;;;5051216;28;20221;-72
2021/07/02 01:49:50;;;;;;;36.30;22.40;;;15.10;99.90;;;;;;5052759;28;20189;-72
2021/07/02 01:52:16;;;;;;;34.73;21.10;;;15.10;99.90;;;;;;5054515;28;20175;-72
2021/07/02 01:54:41;;;;;;;33.57;20.07;;;15.10;99.90;;;;;;5054162;28;20474;-72
2021/07/02 01:57:13;;;;;;;36.60;21.23;;;15.20;99.90;;;;;;5053909;28;20421;-73
2021/07/02 01:59:38;;;;;;;35.57;22.67;;;15.10;99.90;;;;;;5052982;28;20668;-72
2021/07/02 02:02:04;;;;;;;35.30;22.13;;;15.10;99.90;;;;;;5054808;28;20471;-73
2021/07/02 02:04:30;;;;;;;33.17;21.20;;;15.10;99.90;;;;;;5053796;28;20174;-72
2021/07/02 02:06:56;;;;;;;37.00;21.37;;;15.20;99.90;;;;;;5054009;28;20194;-72
2021/07/02 02:09:21;;;;;;;33.00;21.40;;;15.20;99.90;;;;;;5054084;28;20940;-72
2021/07/02 02:11:47;;;;;;;30.90;20.80;;;15.20;99.90;;;;;;5038919;28;20186;-72
2021/07/02 02:14:12;;;;;;;30.50;19.50;;;15.10;99.90;;;;;;5033851;28;20651;-72
2021/07/02 02:16:38;;;;;;;34.93;21.43;;;15.20;99.90;;;;;;5033501;28;20292;-72
2021/07/02 02:19:04;;;;;;;37.00;21.50;;;15.10;99.90;;;;;;5033921;28;20285;-72
2021/07/02 02:21:30;;;;;;;32.90;20.50;;;15.10;99.90;;;;;;5035186;28;20209;-71
2021/07/02 02:23:56;;;;;;;35.40;20.40;;;15.00;99.90;;;;;;5033816;28;20410;-71
2021/07/02 02:26:21;;;;;;;36.23;21.43;;;15.10;99.90;;;;;;5033673;28;20421;-71
2021/07/02 02:28:47;;;;;;;36.67;21.40;;;15.00;99.90;;;;;;5034221;28;20224;-71
2021/07/02 02:31:13;;;;;;;36.53;22.13;;;14.90;99.90;;;;;;5034245;28;20167;-72
2021/07/02 02:33:38;;;;;;;32.60;20.10;;;14.90;99.90;;;;;;5052400;28;20635;-72
2021/07/02 02:36:05;;;;;;;35.50;20.27;;;14.80;99.90;;;;;;5053624;28;20664;-71
2021/07/02 02:38:31;;;;;;;30.40;20.33;;;14.90;99.90;;;;;;5052081;28;20201;-71
2021/07/02 02:40:57;;;;;;;33.90;20.77;;;14.90;99.90;;;;;;5053510;28;20405;-71
2021/07/02 02:43:22;;;;;;;32.20;20.90;;;15.00;99.90;;;;;;5051473;28;20226;-71
2021/07/02 02:45:48;;;;;;;33.37;20.83;;;14.90;99.90;;;;;;5053223;28;20429;-72
2021/07/02 02:48:14;;;;;;;34.37;20.83;;;14.90;99.90;;;;;;5053365;28;20271;-71
2021/07/02 02:50:39;;;;;;;36.03;21.77;;;14.90;99.90;;;;;;5053430;28;20249;-71
2021/07/02 02:53:05;;;;;;;35.90;22.20;;;14.90;99.90;;;;;;5051276;28;20590;-71
2021/07/02 02:55:30;;;;;;;36.83;23.20;;;14.90;99.90;;;;;;5053340;28;20659;-71
2021/07/02 02:57:56;;;;;;;31.70;21.47;;;14.90;99.90;;;;;;5051887;28;20581;-72
2021/07/02 03:00:21;;;;;;;38.60;22.60;;;14.90;99.90;;;;;;5053843;28;20170;-71
2021/07/02 03:02:47;;;;;;;34.67;21.40;;;14.90;99.90;;;;;;5053138;28;20198;-72
2021/07/02 03:05:13;;;;;;;35.47;22.30;;;14.80;99.90;;;;;;5051496;28;20233;-72
2021/07/02 03:07:38;;;;;;;35.47;22.47;;;14.80;99.90;;;;;;5053826;28;20170;-72
2021/07/02 03:10:05;;;;;;;34.23;22.27;;;14.90;99.90;;;;;;5052681;28;20170;-72
2021/07/02 03:12:31;;;;;;;33.80;21.33;;;14.90;99.90;;;;;;5053253;28;20508;-72
2021/07/02 03:14:56;;;;;;;37.07;22.90;;;15.00;99.90;;;;;;5043446;28;20436;-72
2021/07/02 03:17:22;;;;;;;36.73;22.67;;;15.00;99.90;;;;;;5033348;28;20174;-71
2021/07/02 03:19:48;;;;;;;38.70;22.10;;;15.00;99.90;;;;;;5033395;28;20668;-73
2021/07/02 03:22:14;;;;;;;34.80;22.53;;;14.90;99.90;;;;;;5033258;28;20167;-72
2021/07/02 03:24:39;;;;;;;32.37;21.23;;;15.00;99.90;;;;;;5033536;28;20409;-72
2021/07/02 03:27:05;;;;;;;35.37;22.40;;;15.00;99.90;;;;;;5054687;28;20188;-73
2021/07/02 03:29:31;;;;;;;34.13;22.90;;;15.00;99.90;;;;;;5048469;28;20245;-72
2021/07/02 03:31:56;;;;;;;33.53;21.10;;;15.00;99.90;;;;;;5042194;28;20590;-72
2021/07/02 03:34:22;;;;;;;31.37;20.57;;;15.00;99.90;;;;;;5032792;28;20632;-72
2021/07/02 03:36:47;;;;;;;32.63;21.13;;;15.00;99.90;;;;;;5034371;28;20197;-72
2021/07/02 03:39:13;;;;;;;35.10;21.63;;;15.00;99.90;;;;;;5033341;28;20198;-72
2021/07/02 03:41:39;;;;;;;30.27;20.83;;;15.00;99.90;;;;;;5032886;28;20641;-72
2021/07/02 03:44:04;;;;;;;35.77;21.57;;;15.10;99.90;;;;;;5033148;28;20167;-72
2021/07/02 03:46:30;;;;;;;34.33;19.97;;;15.00;99.90;;;;;;5034781;28;20742;-72
2021/07/02 03:48:55;;;;;;;34.57;20.60;;;15.00;99.90;;;;;;5035304;28;20182;-72
2021/07/02 03:51:21;;;;;;;34.63;21.00;;;15.00;99.90;;;;;;5033994;28;20629;-72
2021/07/02 03:53:47;;;;;;;32.70;20.60;;;15.00;99.90;;;;;;5032800;28;20635;-72
2021/07/02 03:56:12;;;;;;;36.40;21.13;;;15.00;99.90;;;;;;5037266;28;20207;-73
2021/07/02 03:58:38;;;;;;;34.10;20.30;;;15.00;99.90;;;;;;5036387;28;20202;-72
2021/07/02 04:01:04;;;;;;;27.73;18.73;;;14.90;99.90;;;;;;5044024;28;20182;-72
2021/07/02 04:03:31;;;;;;;28.10;18.50;;;14.90;99.90;;;;;;5040494;28;20247;-72
2021/07/02 04:05:57;;;;;;;28.53;17.77;;;14.90;99.90;;;;;;5039271;28;20457;-71
2021/07/02 04:08:23;;;;;;;28.47;18.60;;;14.90;99.90;;;;;;5045070;28;20437;-71
2021/07/02 04:10:48;;;;;;;27.70;17.57;;;14.90;99.90;;;;;;5046692;28;20189;-71
2021/07/02 04:13:15;;;;;;;26.30;17.40;;;14.90;99.90;;;;;;5063539;28;20188;-71
2021/07/02 04:15:41;;;;;;;29.97;18.80;;;15.00;99.90;;;;;;5058088;28;20190;-71
2021/07/02 04:18:07;;;;;;;31.90;18.80;;;15.00;99.90;;;;;;5049869;28;20461;-71
2021/07/02 04:20:34;;;;;;;31.43;19.17;;;15.10;99.90;;;;;;5047621;28;20253;-71
2021/07/02 04:23:00;;;;;;;32.73;20.30;;;15.10;99.90;;;;;;5052372;28;20409;-72
2021/07/02 04:25:26;;;;;;;31.87;20.20;;;15.20;99.90;;;;;;5047003;28;20472;-72
2021/07/02 04:27:51;;;;;;;39.43;20.77;;;15.20;99.90;;;;;;5044658;28;20495;-72
2021/07/02 04:30:18;;;;;;;33.47;20.40;;;15.20;99.90;;;;;;5054382;28;20194;-72
2021/07/02 04:32:43;;;;;;;35.53;21.63;;;15.30;99.90;;;;;;5057030;28;20178;-72
2021/07/02 04:35:09;;;;;;;33.53;21.90;;;15.30;99.90;;;;;;5048035;28;21016;-72
2021/07/02 04:37:36;;;;;;;30.23;19.40;;;15.20;99.90;;;;;;5052759;28;20202;-71
2021/07/02 04:40:04;;;;;;;34.73;21.20;;;15.30;99.90;;;;;;5045594;28;20433;-72
2021/07/02 04:42:30;;;;;;;35.43;21.17;;;15.30;99.90;;;;;;5042319;28;20425;-72
2021/07/02 04:44:55;;;;;;;31.97;21.50;;;15.40;99.90;;;;;;5041563;28;20998;-73
2021/07/02 04:47:21;;;;;;;31.43;20.37;;;15.40;99.90;;;;;;5045437;28;20258;-72
2021/07/02 04:49:47;;;;;;;30.30;21.30;;;15.50;99.90;;;;;;5049150;28;20171;-72
2021/07/02 04:52:13;;;;;;;33.57;21.67;;;15.50;99.90;;;;;;5055614;28;20474;-72
2021/07/02 04:54:38;;;;;;;31.47;21.10;;;15.50;99.90;;;;;;5069674;28;20187;-71
2021/07/02 04:57:04;;;;;;;36.13;21.93;;;15.40;99.90;;;;;;5068716;28;20742;-73
2021/07/02 04:59:34;;;;;;;36.20;21.03;;;15.40;99.90;;;;;;5060791;28;20293;-72
2021/07/02 05:02:00;;;;;;;34.57;22.13;;;15.40;99.90;;;;;;5065121;28;20178;-73
2021/07/02 05:04:25;;;;;;;29.80;19.07;;;15.40;99.90;;;;;;5068288;28;20413;-72
2021/07/02 05:06:51;;;;;;;28.47;18.77;;;15.40;99.90;;;;;;5057830;28;20251;-72
2021/07/02 05:09:16;;;;;;;32.93;20.50;;;15.50;99.90;;;;;;5067677;28;20209;-72
2021/07/02 05:11:42;;;;;;;30.20;19.83;;;15.60;99.90;;;;;;5061926;28;20186;-72
2021/07/02 05:14:09;;;;;;;29.90;19.87;;;15.60;99.90;;;;;;5049522;28;20237;-72
2021/07/02 05:16:35;;;;;;;29.00;19.20;;;15.70;99.90;;;;;;5049917;28;20974;-72
2021/07/02 05:19:00;;;;;;;29.87;19.07;;;15.60;99.90;;;;;;5048518;28;20453;-72
2021/07/02 05:21:26;;;;;;;30.97;18.23;;;15.50;99.90;;;;;;5049202;28;20256;-72
2021/07/02 05:23:52;;;;;;;31.30;17.10;;;15.50;99.90;;;;;;5046072;28;20182;-71
2021/07/02 05:26:17;;;;;;;34.10;17.90;;;15.50;99.90;;;;;;5039481;28;20209;-72
2021/07/02 05:28:43;;;;;;;27.80;17.70;;;15.50;99.90;;;;;;5047777;28;20181;-70
2021/07/02 05:31:08;;;;;;;25.40;17.30;;;15.50;99.90;;;;;;5043617;28;20187;-72
2021/07/02 05:33:34;;;;;;;24.30;16.10;;;15.50;99.90;;;;;;5042199;28;20257;-71
2021/07/02 05:36:00;;;;;;;28.10;17.13;;;15.60;99.90;;;;;;5043395;28;20421;-71
2021/07/02 05:38:26;;;;;;;29.63;17.23;;;15.60;99.90;;;;;;5040249;28;20274;-73
2021/07/02 05:40:54;;;;;;;23.43;15.17;;;15.60;99.90;;;;;;5036783;28;20465;-73
2021/07/02 05:43:23;;;;;;;24.43;16.43;;;15.60;99.90;;;;;;5035363;28;20301;-73
2021/07/02 05:45:49;;;;;;;23.53;16.40;;;15.60;99.90;;;;;;5036514;28;20437;-73
2021/07/02 05:48:17;;;;;;;31.50;16.57;;;15.70;99.90;;;;;;5036993;28;20437;-72
2021/07/02 05:50:44;;;;;;;20.97;14.70;;;15.70;99.90;;;;;;5052362;28;20796;-72
2021/07/02 05:53:09;;;;;;;21.50;14.43;;;15.60;99.90;;;;;;5053801;28;20441;-72
2021/07/02 05:55:35;;;;;;;20.13;12.70;;;15.60;99.90;;;;;;5065281;28;20443;-72
2021/07/02 05:58:01;;;;;;;24.07;14.30;;;15.60;99.90;;;;;;5069302;28;20206;-72
2021/07/02 06:00:27;;;;;;;20.97;13.10;;;15.60;99.90;;;;;;5063190;28;20193;-72
2021/07/02 06:02:52;;;;;;;19.00;12.77;;;15.60;99.90;;;;;;5066716;28;20961;-73
2021/07/02 06:05:18;;;;;;;19.40;13.80;;;15.70;99.90;;;;;;5054721;28;20456;-72
2021/07/02 06:07:51;;;;;;;18.50;13.00;;;15.60;99.90;;;;;;5056790;28;20529;-72
2021/07/02 06:10:19;;;;;;;21.07;13.40;;;15.60;99.90;;;;;;5037054;28;20282;-72
2021/07/02 06:12:45;;;;;;;18.03;12.23;;;15.60;99.90;;;;;;5053967;28;20403;-72
2021/07/02 06:15:13;;;;;;;19.50;12.50;;;15.70;99.90;;;;;;5049313;28;20549;-73
2021/07/02 06:17:42;;;;;;;21.17;13.70;;;15.70;99.90;;;;;;5072509;28;20487;-72
2021/07/02 06:20:09;;;;;;;23.73;17.73;;;15.80;99.90;;;;;;5073091;28;20408;-72
2021/07/02 06:22:36;;;;;;;22.10;14.10;;;15.80;99.90;;;;;;5038994;28;20418;-72
2021/07/02 06:25:02;;;;;;;22.93;14.50;;;15.90;99.90;;;;;;5033753;28;20430;-73
2021/07/02 06:27:28;;;;;;;15.10;11.30;;;15.90;99.90;;;;;;5034304;28;20413;-72
2021/07/02 06:29:53;;;;;;;18.90;10.30;;;15.90;99.90;;;;;;5033554;28;20405;-73
2021/07/02 06:32:20;;;;;;;15.60;10.77;;;15.90;99.90;;;;;;5041929;28;20516;-73
2021/07/02 06:34:45;;;;;;;15.40;12.17;;;15.80;99.90;;;;;;5053282;28;20483;-73
2021/07/02 06:37:11;;;;;;;17.47;10.97;;;15.90;99.90;;;;;;5052612;28;20893;-72
2021/07/02 06:39:37;;;;;;;13.97;10.40;;;16.00;99.90;;;;;;5033029;28;20221;-73
2021/07/02 06:42:03;;;;;;;15.80;10.50;;;16.00;99.90;;;;;;5035009;28;20202;-72
2021/07/02 06:44:29;;;;;;;15.60;10.60;;;16.00;99.90;;;;;;5032148;28;20644;-71
2021/07/02 06:46:54;;;;;;;16.83;11.00;;;16.10;99.90;;;;;;5032209;28;20438;-72
2021/07/02 06:49:20;;;;;;;20.20;10.50;;;16.10;99.90;;;;;;5034078;28;20183;-72
2021/07/02 06:51:45;;;;;;;11.80;8.93;;;16.20;99.90;;;;;;5034336;28;20183;-72
2021/07/02 06:54:11;;;;;;;12.00;8.00;;;16.50;99.90;;;;;;5045938;28;20599;-73
2021/07/02 06:56:36;;;;;;;11.70;8.73;;;16.70;99.90;;;;;;5054422;28;20198;-70
2021/07/02 06:59:02;;;;;;;13.17;9.20;;;16.80;99.90;;;;;;5054155;28;20237;-71
2021/07/02 07:01:27;;;;;;;10.37;9.27;;;16.90;99.90;;;;;;5054673;28;20583;-72
2021/07/02 07:03:53;;;;;;;13.90;8.37;;;17.00;99.90;;;;;;5052685;28;20179;-73
2021/07/02 07:06:19;;;;;;;12.53;8.00;;;17.00;99.90;;;;;;5058319;28;20199;-73
2021/07/02 07:08:44;;;;;;;11.73;8.00;;;17.10;99.90;;;;;;5074195;28;20204;-73
2021/07/02 07:11:10;;;;;;;8.97;7.17;;;17.10;99.90;;;;;;5074127;28;20178;-72
2021/07/02 07:13:38;;;;;;;10.07;7.77;;;17.20;99.90;;;;;;5073957;28;20181;-72
2021/07/02 07:16:04;;;;;;;11.53;7.60;;;17.30;99.90;;;;;;5037554;28;20977;-72
2021/07/02 07:18:29;;;;;;;9.37;6.90;;;17.40;99.90;;;;;;5033964;28;20469;-72
2021/07/02 07:20:55;;;;;;;10.33;8.13;;;17.60;99.90;;;;;;5033186;28;20417;-71
2021/07/02 07:23:21;;;;;;;8.90;6.63;;;17.60;99.90;;;;;;5028054;28;20190;-72
2021/07/02 07:25:48;;;;;;;11.80;6.77;;;17.50;99.90;;;;;;5039421;28;20208;-72
2021/07/02 07:28:14;;;;;;;10.00;7.20;;;17.50;99.90;;;;;;5050001;28;20236;-71
2021/07/02 07:30:39;;;;;;;8.33;6.57;;;17.50;99.90;;;;;;5053577;28;20821;-72
2021/07/02 07:33:05;;;;;;;8.70;7.40;;;17.40;99.90;;;;;;5051093;28;20186;-71
2021/07/02 07:35:34;;;;;;;11.80;5.63;;;17.30;99.90;;;;;;5047006;28;20202;-73
2021/07/02 07:38:00;;;;;;;7.10;6.07;;;17.40;99.90;;;;;;5040657;28;20218;-73
2021/07/02 07:40:28;;;;;;;6.73;5.70;;;17.60;99.90;;;;;;5031072;28;20508;-72
2021/07/02 07:42:54;;;;;;;7.33;5.90;;;17.70;99.90;;;;;;5034639;28;20241;-73
2021/07/02 07:45:21;;;;;;;6.40;5.67;;;17.90;99.90;;;;;;5034781;28;20495;-74
2021/07/02 07:47:47;;;;;;;7.13;5.50;;;18.00;99.90;;;;;;5036213;28;20452;-72
2021/07/02 07:50:15;;;;;;;6.63;5.10;;;18.00;99.90;;;;;;5034689;28;20429;-72
2021/07/02 07:53:00;;;;;;;6.43;5.77;;;18.20;99.90;;;;;;5034688;28;20175;-73
2021/07/02 07:55:28;;;;;;;6.40;5.33;;;18.20;99.90;;;;;;5035794;28;20482;-73
2021/07/02 07:57:54;;;;;;;7.37;5.30;;;18.30;99.90;;;;;;5037856;28;20448;-71
2021/07/02 08:00:20;;;;;;;6.40;4.90;;;18.30;99.90;;;;;;5035515;28;20899;-71
2021/07/02 08:02:46;;;;;;;7.17;5.40;;;18.30;99.90;;;;;;5036896;28;20492;-72
2021/07/02 08:05:12;;;;;;;8.20;5.77;;;18.30;99.90;;;;;;5036867;28;20796;-74
2021/07/02 08:07:39;;;;;;;7.40;6.47;;;18.40;99.90;;;;;;5055679;28;20840;-72
2021/07/02 08:10:08;;;;;;;7.73;5.77;;;18.40;99.90;;;;;;5036441;28;20406;-72
2021/07/02 08:12:34;;;;;;;7.40;5.37;;;18.50;99.90;;;;;;5036416;28;20444;-71
2021/07/02 08:15:00;;;;;;;7.20;5.20;;;18.60;99.90;;;;;;5036415;28;20429;-71
2021/07/02 08:17:29;;;;;;;6.53;5.70;;;18.70;99.60;;;;;;5036679;28;21038;-72
2021/07/02 08:19:56;;;;;;;6.70;6.00;;;18.90;99.20;;;;;;5053044;28;20513;-71
2021/07/02 08:22:23;;;;;;;4.90;4.50;;;18.90;98.80;;;;;;5056688;28;20405;-72
2021/07/02 08:24:48;;;;;;;5.00;4.50;;;18.90;98.90;;;;;;5056625;28;20412;-72
2021/07/02 08:27:14;;;;;;;5.90;5.00;;;18.80;98.10;;;;;;5055573;28;20412;-72
2021/07/02 08:29:39;;;;;;;5.90;5.00;;;18.60;98.20;;;;;;5054309;28;20185;-71
2021/07/02 08:32:05;;;;;;;8.83;5.10;;;18.50;98.20;;;;;;5056541;28;20178;-71
2021/07/02 08:34:31;;;;;;;6.80;5.27;;;18.40;98.80;;;;;;5055945;28;20540;-72
2021/07/02 08:36:57;;;;;;;6.87;5.00;;;18.50;99.40;;;;;;5055885;28;20194;-71
2021/07/02 08:39:23;;;;;;;8.20;5.70;;;18.60;99.60;;;;;;5054315;28;20198;-72
2021/07/02 08:41:48;;;;;;;6.80;4.93;;;18.60;99.90;;;;;;5055661;28;20500;-72
2021/07/02 08:44:14;;;;;;;7.40;5.10;;;18.80;99.70;;;;;;5056042;28;20166;-71
2021/07/02 08:46:42;;;;;;;7.50;4.73;;;18.80;99.50;;;;;;5056287;28;20194;-72
2021/07/02 08:49:08;;;;;;;5.00;4.50;;;18.90;99.50;;;;;;5055934;28;20262;-72
2021/07/02 08:51:34;;;;;;;5.50;3.87;;;19.10;98.90;;;;;;5053531;28;20964;-71
2021/07/02 08:54:00;;;;;;;5.87;4.20;;;19.10;98.30;;;;;;5054258;28;20420;-71
2021/07/02 08:56:26;;;;;;;4.37;3.97;;;19.20;98.10;;;;;;5055474;28;20201;-71
2021/07/02 08:58:52;;;;;;;3.60;3.20;;;19.40;97.90;;;;;;5055187;28;20457;-72
2021/07/02 09:01:43;;;;;;;4.10;3.17;;;19.30;96.00;;;;;;5049071;28;20432;-71
2021/07/02 09:04:18;;;;;;;3.30;3.00;;;19.50;96.10;;;;;;5035194;28;20594;-72
2021/07/02 09:06:44;;;;;;;4.30;3.50;;;19.50;95.80;;;;;;5035210;28;20483;-72
2021/07/02 09:09:09;;;;;;;4.60;3.27;;;19.60;95.60;;;;;;5035369;28;20470;-71
2021/07/02 09:11:37;;;;;;;3.30;3.00;;;19.70;95.70;;;;;;5036882;28;20425;-72
2021/07/02 09:14:04;;;;;;;4.40;3.63;;;19.90;95.70;;;;;;5035137;28;20187;-72
2021/07/02 09:16:37;;;;;;;4.10;3.70;;;20.20;95.60;;;;;;5034897;28;20445;-71
2021/07/02 09:19:30;;;;;;;4.03;3.73;;;20.30;95.50;;;;;;5034875;28;20461;-71
2021/07/02 09:22:15;;;;;;;4.70;4.10;;;20.40;95.00;;;;;;5035034;28;20480;-72
2021/07/02 09:24:44;;;;;;;4.77;4.23;;;20.50;94.80;;;;;;5055173;28;20517;-72
2021/07/02 09:27:27;;;;;;;4.97;4.47;;;20.50;95.00;;;;;;5054673;28;20408;-72
2021/07/02 09:30:20;;;;;;;5.63;4.90;;;20.60;95.00;;;;;;5034931;28;20887;-72
2021/07/02 09:32:54;;;;;;;5.73;4.70;;;20.50;95.20;;;;;;5034882;28;20409;-71
2021/07/02 09:35:23;;;;;;;5.33;4.80;;;20.40;95.20;;;;;;5034892;28;20536;-72
2021/07/02 09:40:26;;;;;;;8.20;5.60;;;20.00;95.80;;;;;;5052036;28;20213;-71
2021/07/02 09:43:00;;;;;;;6.27;5.67;;;19.90;96.20;;;;;;5054422;28;20485;-71
2021/07/02 09:45:26;;;;;;;5.90;4.83;;;20.00;96.60;;;;;;5054340;28;20434;-71
2021/07/02 09:47:53;;;;;;;7.67;5.70;;;20.10;96.90;;;;;;5041259;28;20497;-71
2021/07/02 09:50:24;;;;;;;6.80;5.20;;;20.10;96.80;;;;;;5034063;28;20410;-72
2021/07/02 09:52:52;;;;;;;6.07;5.23;;;20.30;96.60;;;;;;5034326;28;20501;-71
2021/07/02 09:55:23;;;;;;;6.00;5.40;;;20.30;96.40;;;;;;5033706;28;20525;-72
2021/07/02 09:57:53;;;;;;;5.47;4.97;;;20.20;95.80;;;;;;5035082;28;20524;-72
2021/07/02 10:00:19;;;;;;;6.07;5.40;;;20.30;96.00;;;;;;5034309;28;20949;-72
2021/07/02 10:02:57;;;;;;;7.07;4.67;;;20.40;96.10;;;;;;5033425;28;20410;-71
2021/07/02 10:05:24;;;;;;;4.50;4.10;;;20.40;95.60;;;;;;5032422;28;20194;-72
2021/07/02 10:08:02;;;;;;;6.37;4.70;;;20.50;95.20;;;;;;5060368;28;20436;-72
2021/07/02 10:10:29;;;;;;;6.30;4.63;;;20.50;95.30;;;;;;5033921;28;20410;-72
2021/07/02 10:12:57;;;;;;;4.40;3.97;;;20.50;95.50;;;;;;5034296;28;20893;-72
2021/07/02 10:15:26;;;;;;;5.37;3.80;;;20.60;95.30;;;;;;5033086;28;20985;-73
2021/07/02 10:17:59;;;;;;;6.63;4.10;;;20.60;94.90;;;;;;5035138;28;20539;-73
2021/07/02 10:20:30;;;;;;;4.30;3.90;;;20.70;94.70;;;;;;5034615;28;20571;-73
2021/07/02 10:22:58;;;;;;;5.83;4.57;;;20.90;94.90;;;;;;5037152;28;20802;-72
2021/07/02 10:25:26;;;;;;;5.20;3.73;;;21.00;95.10;;;;;;5042546;28;20437;-73
2021/07/02 10:27:53;;;;;;;4.20;3.80;;;21.10;94.70;;;;;;5051303;28;20862;-73
2021/07/02 10:30:19;;;;;;;5.10;3.90;;;21.10;94.40;;;;;;5055077;28;20979;-73
2021/07/02 10:32:47;;;;;;;6.13;4.50;;;21.10;93.90;;;;;;5054330;28;20416;-73
2021/07/02 10:35:15;;;;;;;4.33;3.50;;;21.00;93.60;;;;;;5053906;28;20429;-72
2021/07/02 10:37:48;;;;;;;4.60;4.10;;;21.10;93.80;;;;;;5051989;28;20424;-73
2021/07/02 10:40:33;;;;;;;4.00;3.60;;;21.20;93.60;;;;;;5042868;28;20529;-72
2021/07/02 10:43:20;;;;;;;6.70;4.53;;;21.20;93.60;;;;;;5033594;28;20935;-72
2021/07/02 10:46:07;;;;;;;6.57;4.67;;;21.30;93.40;;;;;;5033274;28;20445;-72
2021/07/02 10:48:54;;;;;;;5.90;4.70;;;21.10;93.10;;;;;;5034981;28;20416;-72
2021/07/02 10:54:15;;;;;;;6.17;5.43;;;20.90;93.60;;;;;;5036249;28;20412;-72
2021/07/02 10:56:53;;;;;;;4.73;4.33;;;20.90;93.90;;;;;;5042499;28;20450;-72
2021/07/02 10:59:20;;;;;;;6.17;4.30;;;21.00;94.30;;;;;;5037424;28;20465;-72
2021/07/02 11:02:08;;;;;;;4.80;4.40;;;20.80;94.40;;;;;;5034058;28;20406;-72
2021/07/02 11:04:58;;;;;;;6.00;4.60;;;20.90;94.50;;;;;;5032731;28;20544;-71
2021/07/02 11:07:27;;;;;;;6.07;5.07;;;21.00;94.50;;;;;;5057616;28;20186;-71
2021/07/02 11:09:55;;;;;;;6.43;4.83;;;21.20;94.40;;;;;;5065183;28;20510;-71
2021/07/02 11:12:27;;;;;;;7.17;5.37;;;21.40;94.00;;;;;;5033609;28;20404;-72
2021/07/02 11:14:53;;;;;;;6.03;5.10;;;21.30;93.30;;;;;;5035330;28;20767;-72
2021/07/02 11:17:39;;;;;;;5.17;4.67;;;21.10;93.50;;;;;;5037896;28;20417;-71
2021/07/02 11:20:06;;;;;;;5.00;4.50;;;21.00;94.00;;;;;;5037400;28;20195;-71
2021/07/02 11:22:34;;;;;;;5.10;4.60;;;21.10;94.20;;;;;;5037870;28;20571;-71
2021/07/02 11:25:14;;;;;;;5.40;4.60;;;21.30;94.10;;;;;;5037123;28;20467;-72
2021/07/02 11:27:43;;;;;;;7.07;5.03;;;21.40;94.00;;;;;;5037281;28;20484;-72
2021/07/02 11:30:12;;;;;;;7.03;4.60;;;21.30;93.90;;;;;;5036978;28;20417;-71
2021/07/02 11:32:45;;;;;;;5.97;4.77;;;21.30;94.00;;;;;;5051127;28;20762;-72
2021/07/02 11:35:28;;;;;;;7.80;5.70;;;21.50;94.00;;;;;;5057212;28;20500;-72
2021/07/02 11:38:00;;;;;;;5.17;4.57;;;21.60;93.70;;;;;;5056976;28;20478;-72
2021/07/02 11:40:32;;;;;;;5.70;5.10;;;21.80;93.60;;;;;;5047223;28;20465;-72
2021/07/02 11:43:00;;;;;;;10.10;5.30;;;21.80;93.30;;;;;;5036846;28;20503;-72
2021/07/02 11:45:38;;;;;;;5.53;4.90;;;21.90;93.40;;;;;;5037122;28;20491;-71
2021/07/02 11:48:26;;;;;;;6.27;5.40;;;22.00;93.30;;;;;;5036252;28;20409;-71
2021/07/02 11:51:18;;;;;;;6.50;5.30;;;21.80;93.30;;;;;;5042109;28;20507;-71
2021/07/02 11:53:49;;;;;;;8.00;5.13;;;21.50;93.30;;;;;;5055347;28;20897;-71
2021/07/02 11:56:18;;;;;;;6.50;5.80;;;21.60;93.70;;;;;;5038174;28;20476;-71
2021/07/02 11:58:45;;;;;;;9.07;6.40;;;21.70;93.70;;;;;;5040609;28;20482;-72
2021/07/02 12:01:13;;;;;;;6.33;5.60;;;21.70;93.70;;;;;;5055145;28;20417;-71
2021/07/02 12:03:47;;;;;;;8.73;5.77;;;21.70;93.60;;;;;;5055926;28;20411;-71
2021/07/02 12:06:25;;;;;;;6.50;5.50;;;21.80;93.80;;;;;;5058504;28;20420;-71
2021/07/02 12:08:57;;;;;;;7.77;5.60;;;21.90;93.20;;;;;;5072576;28;20420;-71
2021/07/02 12:11:36;;;;;;;7.00;5.50;;;21.90;93.10;;;;;;5056209;28;20393;-72
2021/07/02 12:14:04;;;;;;;6.43;5.57;;;22.10;93.10;;;;;;5056128;28;20465;-72
2021/07/02 12:16:33;;;;;;;6.90;5.37;;;21.80;93.20;;;;;;5056127;28;20464;-72
2021/07/02 12:18:59;;;;;;;8.87;6.60;;;21.80;93.50;;;;;;5056117;28;20459;-72
2021/07/02 12:21:29;;;;;;;8.00;7.00;;;21.80;93.40;;;;;;5038866;28;20417;-70
2021/07/02 12:23:59;;;;;;;7.17;6.00;;;21.80;92.90;;;;;;5035926;28;20408;-71
2021/07/02 12:26:27;;;;;;;6.43;5.57;;;22.00;93.10;;;;;;5035091;28;20429;-71
2021/07/02 12:29:01;;;;;;;7.27;6.57;;;22.20;93.10;;;;;;5036304;28;20930;-71
2021/07/02 12:31:35;;;;;;;9.47;6.57;;;22.20;93.00;;;;;;5046686;28;20771;-71
2021/07/02 12:34:06;;;;;;;11.53;6.30;;;22.10;93.10;;;;;;5055804;28;20408;-75
2021/07/02 12:36:32;;;;;;;8.03;7.00;;;22.10;93.20;;;;;;5054423;28;20455;-71
2021/07/02 12:39:12;;;;;;;11.37;6.70;;;22.10;93.10;;;;;;5055663;28;20452;-72
2021/07/02 12:41:49;;;;;;;9.10;7.10;;;22.10;93.10;;;;;;5046808;28;20504;-72
2021/07/02 12:44:17;;;;;;;12.67;8.60;;;22.10;92.90;;;;;;5033931;28;20455;-71
2021/07/02 12:46:43;;;;;;;9.03;8.13;;;22.00;93.00;;;;;;5034501;28;20520;-72